Time;durP1;ratioP1;P1;durP2;ratioP2;P2;SDS_P1;SDS_P2;PMS_P1;PMS_P2;Temp;Humidity;BMP_temperature;BMP_pressure;BME280_temperature;BME280_humidity;BME280_pressure;Samples;Min_cycle;Max_cycle;Signal;HPM_P1;HPM_P2
2022/01/24 00:00:03;;;;;;;49.63;34.90;;;;;;;;;;5048530;28;20026;-59
2022/01/24 00:02:29;;;;;;;44.08;33.15;;;;;;;;;;5050029;28;20025;-59
2022/01/24 00:04:54;;;;;;;47.65;33.72;;;;;;;;;;5047938;28;20484;-58
2022/01/24 00:07:22;;;;;;;51.77;35.33;;;;;;;;;;5038002;28;20040;-58
2022/01/24 00:09:48;;;;;;;53.10;37.55;;;;;;;;;;5028489;28;20448;-59
2022/01/24 00:12:27;;;;;;;53.63;36.35;;;;;;;;;;5041021;28;20031;-58
2022/01/24 00:15:20;;;;;;;53.30;39.25;;;;;;;;;;5048527;28;20029;-59
2022/01/24 00:18:01;;;;;;;49.47;35.70;;;;;;;;;;5049015;28;20127;-59
2022/01/24 00:28:22;;;;;;;52.22;37.00;;;;;;;;;;5033850;28;20036;-59
2022/01/24 00:30:47;;;;;;;55.20;37.53;;;;;;;;;;5031693;28;20034;-59
2022/01/24 00:33:13;;;;;;;50.13;35.28;;;;;;;;;;5033405;28;20096;-59
2022/01/24 00:35:38;;;;;;;55.53;37.92;;;;;;;;;;5031807;28;20057;-60
2022/01/24 00:38:03;;;;;;;49.57;34.23;;;;;;;;;;5039668;28;20029;-59
2022/01/24 00:40:32;;;;;;;51.63;35.90;;;;;;;;;;5031724;28;20040;-59
2022/01/24 00:42:59;;;;;;;53.88;37.15;;;;;;;;;;5033160;28;20017;-59
2022/01/24 00:45:40;;;;;;;63.83;46.97;;;;;;;;;;5031709;28;20087;-59
2022/01/24 00:55:44;;;;;;;58.53;38.30;;;;;;;;;;5035213;28;20412;-59
2022/01/24 00:58:09;;;;;;;55.47;35.00;;;;;;;;;;5033184;28;20097;-60
2022/01/24 01:00:34;;;;;;;49.15;35.67;;;;;;;;;;5031550;28;20573;-59
2022/01/24 01:03:00;;;;;;;46.50;33.50;;;;;;;;;;5046630;28;20013;-59
2022/01/24 01:08:12;;;;;;;52.53;37.07;;;;;;;;;;5052232;28;20037;-57
2022/01/24 01:18:49;;;;;;;45.50;34.53;;;;;;;;;;5050378;28;20091;-58
2022/01/24 01:21:15;;;;;;;52.33;37.67;;;;;;;;;;5042151;28;20025;-58
2022/01/24 01:23:48;;;;;;;55.78;35.90;;;;;;;;;;5030934;28;20025;-58
2022/01/24 01:29:23;;;;;;;41.90;30.17;;;;;;;;;;5018711;28;20399;-58
2022/01/24 01:32:04;;;;;;;48.40;35.58;;;;;;;;;;5032032;28;20028;-58
2022/01/24 01:34:50;;;;;;;48.53;35.10;;;;;;;;;;5031234;28;20147;-58
2022/01/24 01:40:11;;;;;;;46.63;33.97;;;;;;;;;;5030098;28;20579;-58
2022/01/24 01:55:57;;;;;;;55.22;35.97;;;;;;;;;;5031615;28;20030;-59
2022/01/24 01:58:23;;;;;;;48.70;35.83;;;;;;;;;;5032044;28;20014;-58
2022/01/24 02:00:49;;;;;;;50.90;35.78;;;;;;;;;;5030280;28;20124;-58
2022/01/24 02:03:15;;;;;;;58.30;40.22;;;;;;;;;;5031722;28;20021;-58
2022/01/24 02:05:40;;;;;;;50.80;34.72;;;;;;;;;;5029923;28;20112;-58
2022/01/24 02:08:06;;;;;;;53.70;38.15;;;;;;;;;;5031779;28;20040;-58
2022/01/24 02:10:36;;;;;;;49.50;35.13;;;;;;;;;;5029898;28;20045;-58
2022/01/24 02:13:02;;;;;;;56.08;38.17;;;;;;;;;;5032105;28;20040;-58
2022/01/24 02:15:45;;;;;;;46.55;33.78;;;;;;;;;;5030060;28;20034;-58
2022/01/24 02:18:28;;;;;;;51.85;34.03;;;;;;;;;;5036557;28;20041;-58
2022/01/24 02:21:13;;;;;;;48.45;34.88;;;;;;;;;;5049844;28;20041;-59
2022/01/24 02:23:45;;;;;;;44.95;35.50;;;;;;;;;;5049515;28;20017;-59
2022/01/24 02:26:15;;;;;;;41.00;31.30;;;;;;;;;;5051073;28;20021;-59
2022/01/24 02:31:23;;;;;;;54.70;35.20;;;;;;;;;;5050342;28;20388;-59
2022/01/24 02:33:49;;;;;;;45.97;34.58;;;;;;;;;;5049798;28;20053;-59
2022/01/24 02:36:22;;;;;;;47.47;32.67;;;;;;;;;;5050891;28;20461;-59
2022/01/24 02:39:16;;;;;;;46.90;37.88;;;;;;;;;;5049252;28;20072;-59
2022/01/24 02:49:53;;;;;;;40.00;31.60;;;;;;;;;;5029076;28;20045;-59
2022/01/24 02:52:22;;;;;;;40.38;34.65;;;;;;;;;;5031009;28;20017;-59
2022/01/24 02:54:49;;;;;;;39.90;31.23;;;;;;;;;;5034581;28;20036;-58
2022/01/24 02:57:14;;;;;;;43.78;34.53;;;;;;;;;;5050871;28;20017;-59
2022/01/24 02:59:39;;;;;;;43.97;35.20;;;;;;;;;;5049122;28;20596;-59
2022/01/24 03:02:04;;;;;;;39.90;30.92;;;;;;;;;;5033106;28;20492;-57
2022/01/24 03:04:29;;;;;;;37.58;30.15;;;;;;;;;;5049176;28;20102;-57
2022/01/24 03:06:55;;;;;;;29.67;25.57;;;;;;;;;;5048858;28;20099;-57
2022/01/24 03:09:22;;;;;;;28.33;22.85;;;;;;;;;;5043180;28;20044;-58
2022/01/24 03:14:20;;;;;;;30.50;27.25;;;;;;;;;;5049353;28;20029;-57
2022/01/24 03:16:46;;;;;;;29.85;23.02;;;;;;;;;;5048893;28;20036;-57
2022/01/24 03:19:12;;;;;;;31.73;23.15;;;;;;;;;;5037903;28;20040;-57
2022/01/24 03:21:37;;;;;;;23.92;20.58;;;;;;;;;;5030592;28;20021;-57
2022/01/24 03:24:02;;;;;;;25.77;21.17;;;;;;;;;;5042706;28;20483;-57
2022/01/24 03:26:27;;;;;;;30.13;22.33;;;;;;;;;;5050560;28;20020;-58
2022/01/24 03:28:52;;;;;;;26.33;19.20;;;;;;;;;;5048892;28;20511;-57
2022/01/24 03:31:17;;;;;;;24.90;21.03;;;;;;;;;;5050166;28;20457;-57
2022/01/24 03:33:43;;;;;;;25.43;20.23;;;;;;;;;;5050169;28;20404;-57
2022/01/24 03:36:08;;;;;;;25.98;21.42;;;;;;;;;;5027620;28;20038;-57
2022/01/24 03:38:33;;;;;;;25.05;20.52;;;;;;;;;;5041220;28;20559;-57
2022/01/24 03:40:58;;;;;;;24.38;19.17;;;;;;;;;;5048223;28;20112;-57
2022/01/24 03:43:24;;;;;;;25.97;21.10;;;;;;;;;;5050537;28;20024;-57
2022/01/24 03:46:10;;;;;;;27.25;20.02;;;;;;;;;;5045440;28;20482;-57
2022/01/24 03:48:40;;;;;;;24.85;19.90;;;;;;;;;;5030459;28;20103;-58
2022/01/24 03:51:06;;;;;;;28.83;22.05;;;;;;;;;;5029012;28;20033;-57
2022/01/24 03:53:31;;;;;;;25.65;20.90;;;;;;;;;;5030429;28;20476;-58
2022/01/24 03:55:56;;;;;;;26.15;22.38;;;;;;;;;;5028600;28;20038;-57
2022/01/24 03:58:21;;;;;;;24.30;20.20;;;;;;;;;;5030267;28;20025;-59
2022/01/24 04:00:46;;;;;;;26.20;20.67;;;;;;;;;;5032535;28;20034;-59
2022/01/24 04:03:14;;;;;;;27.83;23.20;;;;;;;;;;5034264;28;20452;-59
2022/01/24 04:05:39;;;;;;;28.67;22.60;;;;;;;;;;5032639;28;20460;-60
2022/01/24 04:08:04;;;;;;;30.00;23.47;;;;;;;;;;5033865;28;20570;-59
2022/01/24 04:10:39;;;;;;;33.85;22.38;;;;;;;;;;5032331;28;20524;-60
2022/01/24 04:13:09;;;;;;;28.88;22.85;;;;;;;;;;5034266;28;20361;-59
2022/01/24 04:15:56;;;;;;;28.58;22.27;;;;;;;;;;5032426;28;20033;-59
2022/01/24 04:23:40;;;;;;;31.75;24.13;;;;;;;;;;5052539;28;20025;-59
2022/01/24 04:26:05;;;;;;;29.73;24.65;;;;;;;;;;5051660;28;20033;-59
2022/01/24 04:28:30;;;;;;;32.10;24.52;;;;;;;;;;5052086;28;20032;-59
2022/01/24 04:30:55;;;;;;;35.05;27.45;;;;;;;;;;5052916;28;20021;-60
2022/01/24 04:33:20;;;;;;;28.80;23.65;;;;;;;;;;5053492;28;20369;-59
2022/01/24 04:35:45;;;;;;;35.90;24.23;;;;;;;;;;5035065;28;20037;-59
2022/01/24 04:38:11;;;;;;;30.70;25.00;;;;;;;;;;5032901;28;20052;-58
2022/01/24 04:40:36;;;;;;;27.85;23.10;;;;;;;;;;5035438;28;20508;-58
2022/01/24 04:43:23;;;;;;;31.67;24.40;;;;;;;;;;5053476;28;20053;-58
2022/01/24 04:56:35;;;;;;;30.92;25.08;;;;;;;;;;5033488;28;20029;-58
2022/01/24 04:59:00;;;;;;;31.10;25.00;;;;;;;;;;5030804;28;20120;-58
2022/01/24 05:01:25;;;;;;;35.25;26.30;;;;;;;;;;5036402;28;20021;-58
2022/01/24 05:03:51;;;;;;;29.80;25.70;;;;;;;;;;5051225;28;20120;-58
2022/01/24 05:06:16;;;;;;;34.83;27.23;;;;;;;;;;5032229;28;20495;-59
2022/01/24 05:08:42;;;;;;;41.35;29.45;;;;;;;;;;5046660;28;20093;-59
2022/01/24 05:11:11;;;;;;;34.30;27.98;;;;;;;;;;5052543;28;20056;-59
2022/01/24 05:23:27;;;;;;;39.80;31.52;;;;;;;;;;5032239;28;20207;-54
2022/01/24 05:24:48;;;;;;;39.88;29.50;;;;;;;;;;5031785;28;20128;-54
2022/01/24 05:27:13;;;;;;;37.90;31.40;;;;;;;;;;5032587;28;20096;-54
2022/01/24 05:29:39;;;;;;;39.80;30.00;;;;;;;;;;5035430;28;20036;-54
2022/01/24 05:32:05;;;;;;;37.05;29.15;;;;;;;;;;5047642;28;20439;-54
2022/01/24 05:34:30;;;;;;;38.72;31.13;;;;;;;;;;5050922;28;20479;-54
2022/01/24 05:36:55;;;;;;;37.25;25.88;;;;;;;;;;5048878;28;20112;-54
2022/01/24 05:39:20;;;;;;;33.53;26.70;;;;;;;;;;5042140;28;20116;-54
2022/01/24 05:41:45;;;;;;;32.63;27.80;;;;;;;;;;5051585;28;20009;-54
2022/01/24 05:44:11;;;;;;;28.63;23.73;;;;;;;;;;5049263;28;20037;-54
2022/01/24 05:46:36;;;;;;;33.95;27.48;;;;;;;;;;5051942;28;20013;-54
2022/01/24 05:49:01;;;;;;;35.00;27.95;;;;;;;;;;5049837;28;20108;-54
2022/01/24 05:51:28;;;;;;;34.22;27.88;;;;;;;;;;5050980;28;20070;-54
2022/01/24 05:53:53;;;;;;;35.50;28.60;;;;;;;;;;5049702;28;20044;-54
2022/01/24 05:56:18;;;;;;;32.43;26.90;;;;;;;;;;5051093;28;20017;-54
2022/01/24 05:58:43;;;;;;;35.93;28.10;;;;;;;;;;5049113;28;20040;-54
2022/01/24 06:01:08;;;;;;;35.17;28.98;;;;;;;;;;5051067;28;20419;-54
2022/01/24 06:03:34;;;;;;;39.22;27.92;;;;;;;;;;5049495;28;20048;-54
2022/01/24 06:05:59;;;;;;;33.43;29.80;;;;;;;;;;5050276;28;20009;-54
2022/01/24 06:08:24;;;;;;;36.73;29.80;;;;;;;;;;5050075;28;20486;-54
2022/01/24 06:10:49;;;;;;;36.28;27.98;;;;;;;;;;5051261;28;20415;-54
2022/01/24 06:13:14;;;;;;;33.27;27.47;;;;;;;;;;5051517;28;20055;-54
2022/01/24 06:15:40;;;;;;;36.25;29.55;;;;;;;;;;5049798;28;21055;-54
2022/01/24 06:18:05;;;;;;;32.15;27.67;;;;;;;;;;5051344;28;20480;-54
2022/01/24 06:20:30;;;;;;;31.07;25.17;;;;;;;;;;5049671;28;20048;-54
2022/01/24 06:22:55;;;;;;;37.30;28.70;;;;;;;;;;5050469;28;20985;-54
2022/01/24 06:25:23;;;;;;;31.40;26.30;;;;;;;;;;5043424;28;20385;-54
2022/01/24 06:27:49;;;;;;;34.60;28.07;;;;;;;;;;5042067;28;20980;-54
2022/01/24 06:30:14;;;;;;;35.15;26.75;;;;;;;;;;5049895;28;20037;-54
2022/01/24 06:32:39;;;;;;;33.80;29.48;;;;;;;;;;5041882;28;20029;-54
2022/01/24 06:35:05;;;;;;;37.63;28.42;;;;;;;;;;5038859;28;20113;-54
2022/01/24 06:37:30;;;;;;;33.50;26.85;;;;;;;;;;5041355;28;20028;-54
2022/01/24 06:39:56;;;;;;;34.80;28.90;;;;;;;;;;5040679;28;20033;-54
2022/01/24 06:42:22;;;;;;;35.88;29.10;;;;;;;;;;5041324;28;20082;-54
2022/01/24 06:44:48;;;;;;;36.83;28.75;;;;;;;;;;5027435;28;20462;-54
2022/01/24 06:47:13;;;;;;;37.33;29.85;;;;;;;;;;5031122;28;20114;-54
2022/01/24 06:49:38;;;;;;;33.40;26.38;;;;;;;;;;5029478;28;20486;-54
2022/01/24 06:52:06;;;;;;;36.90;30.35;;;;;;;;;;5030855;28;20029;-54
2022/01/24 06:54:31;;;;;;;32.80;28.35;;;;;;;;;;5029674;28;20076;-54
2022/01/24 06:56:56;;;;;;;37.33;28.52;;;;;;;;;;5030957;28;20433;-54
2022/01/24 06:59:21;;;;;;;37.60;29.37;;;;;;;;;;5029289;28;20405;-54
2022/01/24 07:01:46;;;;;;;34.47;29.75;;;;;;;;;;5030605;28;20028;-54
2022/01/24 07:04:12;;;;;;;39.05;32.22;;;;;;;;;;5029356;28;20062;-54
2022/01/24 07:06:37;;;;;;;37.20;30.75;;;;;;;;;;5030221;28;20014;-54
2022/01/24 07:09:03;;;;;;;40.45;31.38;;;;;;;;;;5029482;28;20033;-54
2022/01/24 07:11:28;;;;;;;39.42;31.58;;;;;;;;;;5030883;28;20024;-54
2022/01/24 07:13:53;;;;;;;37.08;29.67;;;;;;;;;;5028966;28;20108;-54
2022/01/24 07:16:19;;;;;;;35.33;31.33;;;;;;;;;;5030678;28;20009;-54
2022/01/24 07:19:01;;;;;;;34.77;30.43;;;;;;;;;;5029174;28;20479;-54
2022/01/24 07:21:26;;;;;;;35.00;29.27;;;;;;;;;;5030295;28;20420;-54
2022/01/24 07:23:51;;;;;;;36.93;27.47;;;;;;;;;;5036015;28;20025;-54
2022/01/24 07:26:17;;;;;;;40.58;30.77;;;;;;;;;;5038004;28;20030;-54
2022/01/24 07:28:44;;;;;;;36.00;29.17;;;;;;;;;;5037877;28;20365;-54
2022/01/24 07:31:09;;;;;;;32.72;28.02;;;;;;;;;;5037592;28;20440;-54
2022/01/24 07:33:34;;;;;;;39.00;32.30;;;;;;;;;;5030311;28;20024;-54
2022/01/24 07:35:59;;;;;;;38.95;32.58;;;;;;;;;;5034113;28;20542;-54
2022/01/24 07:38:25;;;;;;;39.50;31.47;;;;;;;;;;5032345;28;20021;-53
2022/01/24 07:40:53;;;;;;;44.95;34.63;;;;;;;;;;5033810;28;20927;-54
2022/01/24 07:43:18;;;;;;;34.75;27.60;;;;;;;;;;5034297;28;20026;-54
2022/01/24 07:45:44;;;;;;;37.78;29.75;;;;;;;;;;5032523;28;20030;-53
2022/01/24 07:48:10;;;;;;;38.97;29.83;;;;;;;;;;5034625;28;20392;-54
2022/01/24 07:50:37;;;;;;;36.50;29.98;;;;;;;;;;5032405;28;20045;-53
2022/01/24 07:53:03;;;;;;;41.10;33.13;;;;;;;;;;5034169;28;20437;-54
2022/01/24 07:55:28;;;;;;;42.92;30.75;;;;;;;;;;5032828;28;20040;-54
2022/01/24 07:57:53;;;;;;;37.85;31.88;;;;;;;;;;5033731;28;20449;-54
2022/01/24 08:00:19;;;;;;;36.00;32.08;;;;;;;;;;5032599;28;20396;-54
2022/01/24 08:02:44;;;;;;;46.47;29.83;;;;;;;;;;5033740;28;20056;-54
2022/01/24 08:05:10;;;;;;;37.33;30.20;;;;;;;;;;5032169;28;20040;-54
2022/01/24 08:07:36;;;;;;;34.38;28.33;;;;;;;;;;5034234;28;20071;-54
2022/01/24 08:10:02;;;;;;;38.17;29.90;;;;;;;;;;5032320;28;20048;-54
2022/01/24 08:12:28;;;;;;;38.92;32.88;;;;;;;;;;5033746;28;20028;-54
2022/01/24 08:14:53;;;;;;;39.17;30.73;;;;;;;;;;5032145;28;20113;-54
2022/01/24 08:17:18;;;;;;;40.30;31.02;;;;;;;;;;5033739;28;20037;-54
2022/01/24 08:19:44;;;;;;;32.28;28.75;;;;;;;;;;5031672;28;20025;-54
2022/01/24 08:22:09;;;;;;;32.08;26.88;;;;;;;;;;5033692;28;20155;-55
2022/01/24 08:24:34;;;;;;;42.23;31.20;;;;;;;;;;5032240;28;20044;-54
2022/01/24 08:26:59;;;;;;;33.80;28.58;;;;;;;;;;5032936;28;20767;-55
2022/01/24 08:29:25;;;;;;;38.08;31.27;;;;;;;;;;5032120;28;20373;-54
2022/01/24 08:31:50;;;;;;;40.30;31.50;;;;;;;;;;5033319;28;20072;-54
2022/01/24 08:34:15;;;;;;;37.17;30.17;;;;;;;;;;5031831;28;20037;-54
2022/01/24 08:36:40;;;;;;;37.58;29.83;;;;;;;;;;5033504;28;20501;-55
2022/01/24 08:39:07;;;;;;;40.00;33.63;;;;;;;;;;5031917;28;20038;-54
2022/01/24 08:41:58;;;;;;;39.20;31.02;;;;;;;;;;5032856;28;20830;-54
2022/01/24 08:46:48;;;;;;;45.85;34.63;;;;;;;;;;5032477;28;20481;-54
2022/01/24 08:49:14;;;;;;;42.83;31.40;;;;;;;;;;5031271;28;20035;-53
2022/01/24 08:51:39;;;;;;;47.08;35.55;;;;;;;;;;5032890;28;20029;-54
2022/01/24 08:54:05;;;;;;;43.75;34.65;;;;;;;;;;5031709;28;20029;-53
2022/01/24 08:56:30;;;;;;;38.60;30.92;;;;;;;;;;5032706;28;20075;-54
2022/01/24 08:58:55;;;;;;;41.30;34.17;;;;;;;;;;5031240;28;20535;-55
2022/01/24 09:01:20;;;;;;;35.72;30.30;;;;;;;;;;5032881;28;20416;-54
2022/01/24 09:03:45;;;;;;;36.27;27.43;;;;;;;;;;5030817;28;20039;-55
2022/01/24 09:06:11;;;;;;;39.07;30.90;;;;;;;;;;5032910;28;20425;-54
2022/01/24 09:08:36;;;;;;;37.85;31.38;;;;;;;;;;5031367;28;20431;-53
2022/01/24 09:11:02;;;;;;;36.25;26.75;;;;;;;;;;5030986;28;20017;-53
2022/01/24 09:13:30;;;;;;;34.05;27.02;;;;;;;;;;5031152;28;20022;-54
2022/01/24 09:15:55;;;;;;;35.75;29.67;;;;;;;;;;5037778;28;20016;-54
2022/01/24 09:18:20;;;;;;;33.83;27.07;;;;;;;;;;5048783;28;20204;-54
2022/01/24 09:20:48;;;;;;;37.47;29.27;;;;;;;;;;5050597;28;20454;-53
2022/01/24 09:23:14;;;;;;;46.10;36.55;;;;;;;;;;5031426;28;20412;-53
2022/01/24 09:25:39;;;;;;;39.17;31.93;;;;;;;;;;5030290;28;20499;-53
2022/01/24 09:28:04;;;;;;;34.67;29.93;;;;;;;;;;5032306;28;20420;-54
2022/01/24 09:30:30;;;;;;;45.22;32.38;;;;;;;;;;5030708;28;20459;-53
2022/01/24 09:32:55;;;;;;;34.17;28.17;;;;;;;;;;5031975;28;20519;-54
2022/01/24 09:35:20;;;;;;;37.40;30.08;;;;;;;;;;5050388;28;20039;-52
2022/01/24 09:37:47;;;;;;;32.95;26.42;;;;;;;;;;5051958;28;20020;-53
2022/01/24 09:40:13;;;;;;;36.58;30.42;;;;;;;;;;5050002;28;20407;-54
2022/01/24 09:42:39;;;;;;;38.00;29.58;;;;;;;;;;5051639;28;20465;-55
2022/01/24 09:45:05;;;;;;;35.53;28.95;;;;;;;;;;5050574;28;20040;-54
2022/01/24 09:47:30;;;;;;;33.25;28.83;;;;;;;;;;5051444;28;20021;-52
2022/01/24 09:49:55;;;;;;;36.67;27.63;;;;;;;;;;5050233;28;20148;-54
2022/01/24 09:52:20;;;;;;;39.03;29.92;;;;;;;;;;5051414;28;20439;-54
2022/01/24 09:54:46;;;;;;;36.77;29.83;;;;;;;;;;5050040;28;20119;-54
2022/01/24 09:57:11;;;;;;;32.73;25.77;;;;;;;;;;5050307;28;20423;-55
2022/01/24 09:59:36;;;;;;;37.47;30.42;;;;;;;;;;5050204;28;20799;-54
2022/01/24 10:02:01;;;;;;;35.57;30.03;;;;;;;;;;5051331;28;20388;-54
2022/01/24 10:04:27;;;;;;;34.92;27.85;;;;;;;;;;5049929;28;20443;-54
2022/01/24 10:07:00;;;;;;;33.58;25.73;;;;;;;;;;5051358;28;20475;-55
2022/01/24 10:09:39;;;;;;;34.25;27.98;;;;;;;;;;5050117;28;20044;-54
2022/01/24 10:12:22;;;;;;;29.25;25.00;;;;;;;;;;5044799;28;20024;-54
2022/01/24 10:17:33;;;;;;;30.75;25.25;;;;;;;;;;5051163;28;20090;-54
2022/01/24 10:20:14;;;;;;;37.72;27.92;;;;;;;;;;5049677;28;20395;-54
2022/01/24 10:22:39;;;;;;;34.72;29.30;;;;;;;;;;5051166;28;20020;-55
2022/01/24 10:25:08;;;;;;;32.83;26.67;;;;;;;;;;5048252;28;20033;-55
2022/01/24 10:27:33;;;;;;;31.13;26.63;;;;;;;;;;5049658;28;20029;-54
2022/01/24 10:30:07;;;;;;;33.83;28.23;;;;;;;;;;5049183;28;20044;-54
2022/01/24 10:32:42;;;;;;;34.80;28.45;;;;;;;;;;5051066;28;20380;-54
2022/01/24 10:35:20;;;;;;;33.20;27.73;;;;;;;;;;5049457;28;20039;-53
2022/01/24 10:37:48;;;;;;;30.40;23.52;;;;;;;;;;5050579;28;20032;-55
2022/01/24 10:40:29;;;;;;;30.58;26.40;;;;;;;;;;5049154;28;20032;-54
2022/01/24 10:43:13;;;;;;;30.30;25.67;;;;;;;;;;5050847;28;20028;-54
2022/01/24 10:45:42;;;;;;;34.35;25.13;;;;;;;;;;5035094;28;20488;-54
2022/01/24 10:48:07;;;;;;;31.42;24.85;;;;;;;;;;5050686;28;20120;-53
2022/01/24 10:50:32;;;;;;;27.30;24.17;;;;;;;;;;5045024;28;20716;-53
2022/01/24 10:52:58;;;;;;;26.67;21.50;;;;;;;;;;5050207;28;20539;-54
2022/01/24 10:55:27;;;;;;;30.15;25.30;;;;;;;;;;5045064;28;20079;-54
2022/01/24 10:58:05;;;;;;;27.20;23.98;;;;;;;;;;5039170;28;20455;-54
2022/01/24 11:00:31;;;;;;;27.58;23.35;;;;;;;;;;5048330;28;20040;-53
2022/01/24 11:02:59;;;;;;;29.08;26.10;;;;;;;;;;5030963;28;20025;-54
2022/01/24 11:05:26;;;;;;;27.38;24.45;;;;;;;;;;5029380;28;20160;-54
2022/01/24 11:07:51;;;;;;;32.05;26.05;;;;;;;;;;5029781;28;20614;-55
2022/01/24 11:10:16;;;;;;;29.90;25.83;;;;;;;;;;5033369;28;20052;-55
2022/01/24 11:12:42;;;;;;;26.33;23.50;;;;;;;;;;5035182;28;20048;-54
2022/01/24 11:15:07;;;;;;;36.25;28.35;;;;;;;;;;5034193;28;20037;-55
2022/01/24 11:17:33;;;;;;;29.55;24.27;;;;;;;;;;5050069;28;20103;-54
2022/01/24 11:20:02;;;;;;;27.38;24.05;;;;;;;;;;5047206;28;20045;-54
2022/01/24 11:22:29;;;;;;;29.55;24.90;;;;;;;;;;5050796;28;20052;-55
2022/01/24 11:24:59;;;;;;;28.58;25.15;;;;;;;;;;5035625;28;20459;-55
2022/01/24 11:27:24;;;;;;;30.92;27.08;;;;;;;;;;5030623;28;20017;-54
2022/01/24 11:29:51;;;;;;;31.67;25.08;;;;;;;;;;5029528;28;20103;-55
2022/01/24 11:32:30;;;;;;;28.23;24.38;;;;;;;;;;5031384;28;20104;-54
2022/01/24 11:34:56;;;;;;;30.65;25.90;;;;;;;;;;5029008;28;20045;-53
2022/01/24 11:37:39;;;;;;;31.45;24.33;;;;;;;;;;5030252;28;20032;-55
2022/01/24 11:40:08;;;;;;;30.48;26.33;;;;;;;;;;5028565;28;20033;-55
2022/01/24 11:42:35;;;;;;;29.45;26.35;;;;;;;;;;5030672;28;20020;-54
2022/01/24 11:45:05;;;;;;;27.98;24.88;;;;;;;;;;5028848;28;20084;-55
2022/01/24 11:47:31;;;;;;;25.60;21.33;;;;;;;;;;5030102;28;20026;-53
2022/01/24 11:49:57;;;;;;;27.50;24.25;;;;;;;;;;5028620;28;20061;-54
2022/01/24 11:52:32;;;;;;;28.20;24.95;;;;;;;;;;5030529;28;20053;-54
2022/01/24 11:55:13;;;;;;;28.23;25.05;;;;;;;;;;5028392;28;20037;-54
2022/01/24 11:57:39;;;;;;;30.33;22.77;;;;;;;;;;5030275;28;20025;-54
2022/01/24 12:00:05;;;;;;;26.90;22.00;;;;;;;;;;5028721;28;20036;-54
2022/01/24 12:02:32;;;;;;;27.13;22.83;;;;;;;;;;5029906;28;20097;-54
2022/01/24 12:04:57;;;;;;;27.63;24.25;;;;;;;;;;5028799;28;20115;-54
2022/01/24 12:07:26;;;;;;;24.80;22.20;;;;;;;;;;5030033;28;20080;-54
2022/01/24 12:09:53;;;;;;;24.70;22.13;;;;;;;;;;5028159;28;20475;-55
2022/01/24 12:12:36;;;;;;;24.95;21.02;;;;;;;;;;5030087;28;20510;-55
2022/01/24 12:15:03;;;;;;;26.35;21.95;;;;;;;;;;5028622;28;20447;-55
2022/01/24 12:17:44;;;;;;;27.27;22.95;;;;;;;;;;5029493;28;20044;-54
2022/01/24 12:20:28;;;;;;;25.70;22.92;;;;;;;;;;5029138;28;20048;-54
2022/01/24 12:22:53;;;;;;;25.80;23.13;;;;;;;;;;5033127;28;20021;-55
2022/01/24 12:25:18;;;;;;;29.70;24.10;;;;;;;;;;5032379;28;20033;-54
2022/01/24 12:28:03;;;;;;;36.83;28.50;;;;;;;;;;5033342;28;20052;-54
2022/01/24 12:30:47;;;;;;;31.38;26.90;;;;;;;;;;5032030;28;20459;-54
2022/01/24 12:33:27;;;;;;;33.13;29.05;;;;;;;;;;5033609;28;20468;-54
2022/01/24 12:35:52;;;;;;;30.85;27.63;;;;;;;;;;5031704;28;20048;-55
2022/01/24 12:38:17;;;;;;;29.75;25.27;;;;;;;;;;5033158;28;20108;-55
2022/01/24 12:40:42;;;;;;;27.60;22.87;;;;;;;;;;5031808;28;20041;-54
2022/01/24 12:43:18;;;;;;;28.15;25.17;;;;;;;;;;5037910;28;20494;-54
2022/01/24 12:48:29;;;;;;;31.08;27.38;;;;;;;;;;5053128;28;20067;-54
2022/01/24 12:50:54;;;;;;;30.77;27.58;;;;;;;;;;5051242;28;20036;-54
2022/01/24 12:53:20;;;;;;;29.80;26.60;;;;;;;;;;5052834;28;20028;-55
2022/01/24 12:55:55;;;;;;;29.75;25.75;;;;;;;;;;5051367;28;20060;-55
2022/01/24 12:58:29;;;;;;;34.03;29.55;;;;;;;;;;5052942;28;20055;-54
2022/01/24 13:00:55;;;;;;;34.22;27.60;;;;;;;;;;5041394;28;20129;-54
2022/01/24 13:03:20;;;;;;;34.42;27.27;;;;;;;;;;5046251;28;20040;-54
2022/01/24 13:05:45;;;;;;;33.92;28.95;;;;;;;;;;5040460;28;20044;-54
2022/01/24 13:08:14;;;;;;;31.45;28.20;;;;;;;;;;5032576;28;20056;-54
2022/01/24 13:10:40;;;;;;;31.13;27.75;;;;;;;;;;5030913;28;20038;-54
2022/01/24 13:13:10;;;;;;;29.15;26.05;;;;;;;;;;5033055;28;20389;-55
2022/01/24 13:21:10;;;;;;;31.75;28.08;;;;;;;;;;5031275;28;20037;-54
2022/01/24 13:23:39;;;;;;;34.53;29.20;;;;;;;;;;5031023;28;20032;-55
2022/01/24 13:26:05;;;;;;;35.53;30.80;;;;;;;;;;5032542;28;20022;-54
2022/01/24 13:28:30;;;;;;;36.17;32.38;;;;;;;;;;5031165;28;20025;-54
2022/01/24 13:31:01;;;;;;;37.67;33.57;;;;;;;;;;5031675;28;20029;-54
2022/01/24 13:33:27;;;;;;;33.53;29.83;;;;;;;;;;5030952;28;20045;-53
2022/01/24 13:35:58;;;;;;;34.35;30.45;;;;;;;;;;5032223;28;20056;-54
2022/01/24 13:38:25;;;;;;;40.10;30.30;;;;;;;;;;5032330;28;20486;-54
2022/01/24 13:43:28;;;;;;;38.93;32.93;;;;;;;;;;5032553;28;20021;-54
2022/01/24 13:45:53;;;;;;;32.88;29.08;;;;;;;;;;5030164;28;20033;-55
2022/01/24 13:48:19;;;;;;;33.47;29.58;;;;;;;;;;5032149;28;20021;-54
2022/01/24 13:50:49;;;;;;;33.08;29.65;;;;;;;;;;5030666;28;20038;-54
2022/01/24 13:53:28;;;;;;;32.53;29.13;;;;;;;;;;5031910;28;20353;-54
2022/01/24 13:55:53;;;;;;;34.05;30.40;;;;;;;;;;5030745;28;20095;-53
2022/01/24 13:58:23;;;;;;;37.80;33.72;;;;;;;;;;5031899;28;20029;-54
2022/01/24 14:00:55;;;;;;;33.15;28.58;;;;;;;;;;5029698;28;20030;-54
2022/01/24 14:03:21;;;;;;;34.63;31.05;;;;;;;;;;5031944;28;20453;-53
2022/01/24 14:05:46;;;;;;;36.05;31.05;;;;;;;;;;5029870;28;20120;-53
2022/01/24 14:08:13;;;;;;;36.33;31.05;;;;;;;;;;5031450;28;20446;-54
2022/01/24 14:10:38;;;;;;;37.33;32.40;;;;;;;;;;5029977;28;20058;-54
2022/01/24 14:13:04;;;;;;;35.03;31.57;;;;;;;;;;5031803;28;20021;-53
2022/01/24 14:15:54;;;;;;;33.80;30.20;;;;;;;;;;5029748;28;20479;-54
2022/01/24 14:18:28;;;;;;;37.47;32.92;;;;;;;;;;5031339;28;20056;-55
2022/01/24 14:20:54;;;;;;;36.13;30.85;;;;;;;;;;5030027;28;20043;-54
2022/01/24 14:23:32;;;;;;;34.58;30.95;;;;;;;;;;5031334;28;20049;-54
2022/01/24 14:25:57;;;;;;;35.75;31.88;;;;;;;;;;5029806;28;20095;-54
2022/01/24 14:28:23;;;;;;;32.97;29.30;;;;;;;;;;5031377;28;20021;-54
2022/01/24 14:30:49;;;;;;;35.55;31.63;;;;;;;;;;5029337;28;20041;-54
2022/01/24 14:33:18;;;;;;;36.55;32.55;;;;;;;;;;5031561;28;20369;-53
2022/01/24 14:35:54;;;;;;;35.17;31.40;;;;;;;;;;5029602;28;20053;-54
2022/01/24 14:38:33;;;;;;;36.25;32.38;;;;;;;;;;5029581;28;20167;-54
2022/01/24 14:41:02;;;;;;;33.60;30.02;;;;;;;;;;5027765;28;20056;-54
2022/01/24 14:46:16;;;;;;;38.60;34.60;;;;;;;;;;5030944;28;20028;-54
2022/01/24 14:48:42;;;;;;;38.65;33.45;;;;;;;;;;5029202;28;20021;-54
2022/01/24 14:51:07;;;;;;;40.10;35.92;;;;;;;;;;5030164;28;20029;-54
2022/01/24 14:53:34;;;;;;;42.10;35.10;;;;;;;;;;5029451;28;20026;-54
2022/01/24 14:55:59;;;;;;;40.00;35.78;;;;;;;;;;5030967;28;20822;-54
2022/01/24 14:58:25;;;;;;;40.08;35.80;;;;;;;;;;5030402;28;20018;-53
2022/01/24 15:00:50;;;;;;;43.72;39.10;;;;;;;;;;5029093;28;20059;-54
2022/01/24 15:03:15;;;;;;;40.83;36.42;;;;;;;;;;5031190;28;20068;-54
2022/01/24 15:05:41;;;;;;;50.10;36.88;;;;;;;;;;5028714;28;20079;-55
2022/01/24 15:08:06;;;;;;;44.35;36.72;;;;;;;;;;5030760;28;20100;-54
2022/01/24 15:10:31;;;;;;;39.25;34.83;;;;;;;;;;5031508;28;20045;-54
2022/01/24 15:13:03;;;;;;;38.70;34.33;;;;;;;;;;5037773;28;20025;-54
2022/01/24 15:15:30;;;;;;;41.33;35.95;;;;;;;;;;5048208;28;20574;-53
2022/01/24 15:26:02;;;;;;;41.30;36.65;;;;;;;;;;5048846;28;20052;-54
2022/01/24 15:28:27;;;;;;;42.47;37.47;;;;;;;;;;5048657;28;20024;-54
2022/01/24 15:30:52;;;;;;;45.87;37.87;;;;;;;;;;5050400;28;20013;-53
2022/01/24 15:33:18;;;;;;;42.47;34.73;;;;;;;;;;5050306;28;20419;-54
2022/01/24 15:35:43;;;;;;;44.53;37.27;;;;;;;;;;5048383;28;20124;-54
2022/01/24 15:38:08;;;;;;;41.93;36.97;;;;;;;;;;5050347;28;20456;-54
2022/01/24 15:40:34;;;;;;;45.67;40.47;;;;;;;;;;5048757;28;20858;-54
2022/01/24 15:43:06;;;;;;;45.22;40.03;;;;;;;;;;5049912;28;20423;-54
2022/01/24 15:47:57;;;;;;;44.20;37.97;;;;;;;;;;5050163;28;20072;-54
2022/01/24 15:50:23;;;;;;;45.88;38.75;;;;;;;;;;5048455;28;20381;-55
2022/01/24 15:52:48;;;;;;;47.85;39.05;;;;;;;;;;5050249;28;20021;-53
2022/01/24 15:55:16;;;;;;;48.05;42.20;;;;;;;;;;5044991;28;20040;-56
2022/01/24 15:57:42;;;;;;;47.90;41.42;;;;;;;;;;5045647;28;20016;-54
2022/01/24 16:00:11;;;;;;;48.60;40.28;;;;;;;;;;5032555;28;20034;-54
2022/01/24 16:02:36;;;;;;;44.50;38.20;;;;;;;;;;5040222;28;20032;-54
2022/01/24 16:05:01;;;;;;;48.73;35.73;;;;;;;;;;5051843;28;20041;-54
2022/01/24 16:07:26;;;;;;;43.00;38.00;;;;;;;;;;5054126;28;20442;-54
2022/01/24 16:09:52;;;;;;;49.15;41.00;;;;;;;;;;5050440;28;20546;-54
2022/01/24 16:12:17;;;;;;;49.75;39.67;;;;;;;;;;5053797;28;20079;-54